Time;durP1;ratioP1;P1;durP2;ratioP2;P2;SDS_P1;SDS_P2;PMS_P1;PMS_P2;Temp;Humidity;BMP_temperature;BMP_pressure;BME280_temperature;BME280_humidity;BME280_pressure;Samples;Min_cycle;Max_cycle;Signal;HPM_P1;HPM_P2
2021/12/23 06:49:31;;;;;;;8.60;5.55;;;;;;;;;;10589751;27;20416;-83
2021/12/23 06:55:11;;;;;;;8.07;5.28;;;;;;;;;;10576678;28;20038;-83
2021/12/23 07:00:27;;;;;;;7.80;5.90;;;;;;;;;;10632175;27;20024;-83
2021/12/23 07:05:52;;;;;;;6.07;4.45;;;;;;;;;;10615309;28;20030;-83
2021/12/23 07:10:55;;;;;;;5.97;4.65;;;;;;;;;;10630981;28;20038;-82
2021/12/23 07:16:03;;;;;;;6.95;5.90;;;;;;;;;;10630406;28;20040;-82
2021/12/23 07:21:08;;;;;;;8.85;7.55;;;;;;;;;;10609478;28;20035;-83
2021/12/23 07:26:10;;;;;;;6.53;5.57;;;;;;;;;;10611378;28;20035;-83
2021/12/23 07:31:36;;;;;;;5.85;4.90;;;;;;;;;;10612013;28;20039;-83
2021/12/23 07:36:39;;;;;;;7.18;5.63;;;;;;;;;;10634986;28;20028;-83
2021/12/23 07:41:55;;;;;;;7.63;6.20;;;;;;;;;;10622977;28;20091;-83
2021/12/23 07:47:03;;;;;;;7.28;5.85;;;;;;;;;;10612225;28;20138;-83
2021/12/23 07:52:06;;;;;;;8.93;6.72;;;;;;;;;;10657179;27;20019;-82
2021/12/23 07:57:09;;;;;;;6.60;5.78;;;;;;;;;;10606333;28;20028;-82
2021/12/23 08:02:10;;;;;;;12.65;9.00;;;;;;;;;;10569201;28;20100;-83
2021/12/23 08:07:11;;;;;;;12.32;11.00;;;;;;;;;;10582406;28;20027;-83
2021/12/23 08:12:12;;;;;;;14.45;11.15;;;;;;;;;;10583280;28;20504;-82
2021/12/23 08:17:13;;;;;;;15.52;12.00;;;;;;;;;;10585761;28;20091;-83
2021/12/23 08:22:14;;;;;;;14.25;11.93;;;;;;;;;;10590872;28;20031;-81
2021/12/23 08:27:15;;;;;;;15.23;12.30;;;;;;;;;;10591449;28;20148;-82
2021/12/23 08:32:16;;;;;;;14.25;12.05;;;;;;;;;;10589662;28;20095;-82
2021/12/23 08:37:17;;;;;;;13.65;11.70;;;;;;;;;;10614393;28;20385;-80
2021/12/23 08:42:18;;;;;;;13.73;10.48;;;;;;;;;;10596317;28;20028;-83
2021/12/23 08:47:19;;;;;;;;;;;;;;;;;;10586833;28;20051;-82
2021/12/23 08:52:20;;;;;;;9.75;8.27;;;;;;;;;;10599188;28;20299;-86
2021/12/23 08:57:21;;;;;;;10.13;8.93;;;;;;;;;;10586210;28;20063;-82
2021/12/23 09:02:22;;;;;;;;;;;;;;;;;;10605121;28;20035;-83
2021/12/23 09:07:23;;;;;;;12.75;10.23;;;;;;;;;;10582601;28;20273;-84
2021/12/23 09:12:25;;;;;;;9.82;7.45;;;;;;;;;;10583159;28;20034;-84
2021/12/23 09:17:26;;;;;;;9.55;7.95;;;;;;;;;;10578410;28;20034;-84
2021/12/23 09:22:27;;;;;;;;;;;;;;;;;;10578095;28;20024;-84
2021/12/23 09:27:37;;;;;;;11.75;9.63;;;;;;;;;;10574822;28;19904;-84
2021/12/23 09:33:00;;;;;;;12.55;9.90;;;;;;;;;;10575380;28;20103;-83
2021/12/23 09:38:01;;;;;;;11.65;9.77;;;;;;;;;;10577306;28;20091;-84
2021/12/23 09:43:08;;;;;;;12.55;10.70;;;;;;;;;;10585309;28;20007;-83
2021/12/23 09:48:09;;;;;;;10.32;8.50;;;;;;;;;;10609882;28;20042;-83
2021/12/23 09:53:10;;;;;;;;;;;;;;;;;;10593338;28;20028;-84
2021/12/23 09:58:11;;;;;;;10.30;7.55;;;;;;;;;;10575030;28;19914;-83
2021/12/23 10:03:13;;;;;;;11.65;8.48;;;;;;;;;;10581599;28;20041;-84
2021/12/23 10:08:15;;;;;;;10.82;8.27;;;;;;;;;;10593073;28;20051;-83
2021/12/23 10:39:35;;;;;;;14.00;9.88;;;;;;;;;;10592461;28;20046;-81
2021/12/23 10:44:36;;;;;;;11.88;8.77;;;;;;;;;;10573223;28;20019;-82
2021/12/23 10:49:44;;;;;;;12.45;9.88;;;;;;;;;;10572356;28;20038;-83
2021/12/23 10:59:50;;;;;;;11.57;9.48;;;;;;;;;;10594061;28;20032;-80
2021/12/23 11:05:00;;;;;;;11.68;8.85;;;;;;;;;;10572840;28;20126;-82
2021/12/23 11:10:15;;;;;;;15.50;11.00;;;;;;;;;;10573657;28;20024;-81
2021/12/23 11:42:17;;;;;;;10.57;7.28;;;;;;;;;;10621368;28;20061;-82
2021/12/23 11:47:18;;;;;;;;;;;;;;;;;;10583912;28;20401;-85
2021/12/23 11:52:20;;;;;;;11.13;8.15;;;;;;;;;;10582948;28;19912;-84
2021/12/23 11:57:23;;;;;;;10.15;7.72;;;;;;;;;;10583603;28;20569;-85
2021/12/23 12:02:24;;;;;;;10.52;7.68;;;;;;;;;;10581542;28;20035;-86
2021/12/23 12:07:47;;;;;;;12.40;9.80;;;;;;;;;;10592142;28;20027;-83
2021/12/23 12:12:57;;;;;;;9.93;7.68;;;;;;;;;;10591151;28;20018;-84
2021/12/23 12:18:02;;;;;;;15.40;8.82;;;;;;;;;;10605262;28;20477;-83
2021/12/23 12:23:07;;;;;;;11.60;8.65;;;;;;;;;;10583717;28;20090;-85
2021/12/23 12:28:08;;;;;;;10.20;7.63;;;;;;;;;;10584029;28;20032;-85
2021/12/23 12:33:33;;;;;;;13.93;8.80;;;;;;;;;;10583695;28;20028;-85
2021/12/23 12:38:36;;;;;;;11.65;8.68;;;;;;;;;;10582874;28;20118;-85
2021/12/23 12:43:55;;;;;;;11.13;8.10;;;;;;;;;;10584561;28;20019;-85
2021/12/23 12:49:01;;;;;;;8.20;6.60;;;;;;;;;;10619672;27;20031;-79
2021/12/23 12:54:05;;;;;;;13.82;10.05;;;;;;;;;;10637302;27;20023;-83
2021/12/23 12:59:07;;;;;;;10.88;7.90;;;;;;;;;;10602925;27;20016;-83
2021/12/23 13:04:27;;;;;;;7.93;5.30;;;;;;;;;;10603102;27;20019;-79
2021/12/23 13:09:36;;;;;;;11.43;8.13;;;;;;;;;;10617588;27;20040;-80
2021/12/23 13:14:57;;;;;;;12.00;9.43;;;;;;;;;;10636112;27;20028;-85
2021/12/23 13:20:03;;;;;;;11.23;7.90;;;;;;;;;;10616532;27;20096;-83
2021/12/23 13:25:04;;;;;;;11.40;7.63;;;;;;;;;;10615307;28;20027;-84
2021/12/23 13:30:06;;;;;;;10.27;6.72;;;;;;;;;;10616188;27;20050;-84
2021/12/23 13:35:08;;;;;;;12.00;8.60;;;;;;;;;;10616446;27;20019;-83
2021/12/23 13:40:10;;;;;;;12.85;7.88;;;;;;;;;;10634354;27;20038;-83
2021/12/23 13:45:11;;;;;;;8.95;6.95;;;;;;;;;;10603542;27;20022;-84
2021/12/23 13:50:12;;;;;;;;;;;;;;;;;;10593196;28;20438;-85
2021/12/23 13:55:21;;;;;;;7.22;5.70;;;;;;;;;;10576100;28;19919;-85
2021/12/23 14:00:27;;;;;;;9.35;5.53;;;;;;;;;;10578506;28;20023;-85
2021/12/23 14:05:28;;;;;;;9.93;7.50;;;;;;;;;;10574450;28;20122;-84
2021/12/23 14:10:29;;;;;;;;;;;;;;;;;;10572583;28;20027;-83
2021/12/23 14:15:30;;;;;;;12.70;9.48;;;;;;;;;;10572879;28;19972;-84
2021/12/23 14:26:02;;;;;;;14.65;9.48;;;;;;;;;;10592656;28;19943;-83
2021/12/23 14:31:15;;;;;;;15.35;11.50;;;;;;;;;;10595747;28;20015;-82
2021/12/23 14:36:21;;;;;;;10.88;8.95;;;;;;;;;;10596020;28;20111;-81
2021/12/23 14:47:23;;;;;;;10.57;8.57;;;;;;;;;;10594900;28;20066;-82
2021/12/23 14:52:30;;;;;;;11.38;8.20;;;;;;;;;;10593292;28;20024;-83
2021/12/23 14:57:32;;;;;;;10.57;8.80;;;;;;;;;;10575037;28;20565;-82
2021/12/23 15:02:33;;;;;;;14.75;10.88;;;;;;;;;;10596947;28;20031;-82
2021/12/23 15:07:34;;;;;;;;;;;;;;;;;;10579959;28;20055;-80
2021/12/23 15:12:37;;;;;;;15.27;10.85;;;;;;;;;;10585686;28;19904;-81
2021/12/23 15:17:50;;;;;;;10.38;8.02;;;;;;;;;;10594832;28;20031;-81
2021/12/23 15:22:54;;;;;;;12.35;9.65;;;;;;;;;;10602407;28;20026;-81
2021/12/23 15:27:55;;;;;;;10.73;7.55;;;;;;;;;;10585751;28;20031;-81
2021/12/23 15:32:56;;;;;;;;;;;;;;;;;;10586782;28;20057;-81
2021/12/23 15:38:01;;;;;;;10.88;7.35;;;;;;;;;;10588384;28;20361;-82
2021/12/23 15:43:07;;;;;;;13.23;8.85;;;;;;;;;;10589333;28;20114;-82
2021/12/23 15:48:08;;;;;;;13.43;8.88;;;;;;;;;;10588779;28;20035;-82
2021/12/23 15:53:09;;;;;;;;;;;;;;;;;;10593328;28;20032;-80
2021/12/23 15:58:10;;;;;;;;;;;;;;;;;;10604943;28;19916;-82
2021/12/23 16:03:11;;;;;;;13.10;10.13;;;;;;;;;;10606733;28;19903;-82
2021/12/23 16:08:12;;;;;;;;;;;;;;;;;;10608025;28;20031;-82
2021/12/23 16:13:14;;;;;;;14.38;10.98;;;;;;;;;;10583368;28;20388;-81
2021/12/23 16:18:15;;;;;;;16.77;13.05;;;;;;;;;;10588232;28;20034;-81
2021/12/23 16:23:16;;;;;;;;;;;;;;;;;;10595759;28;20157;-80
2021/12/23 16:28:21;;;;;;;17.55;12.48;;;;;;;;;;10591806;28;19971;-81
2021/12/23 16:33:21;;;;;;;15.73;11.73;;;;;;;;;;10595895;28;20027;-81
2021/12/23 16:38:24;;;;;;;15.73;11.85;;;;;;;;;;10609398;28;20031;-81
2021/12/23 16:43:26;;;;;;;14.25;10.32;;;;;;;;;;10605175;28;20023;-81
2021/12/23 16:48:27;;;;;;;13.45;9.35;;;;;;;;;;10577153;28;20031;-81
2021/12/23 16:53:28;;;;;;;;;;;;;;;;;;10579997;28;20036;-80
2021/12/23 16:58:29;;;;;;;15.27;11.38;;;;;;;;;;10594486;28;20079;-81
2021/12/23 17:03:30;;;;;;;;;;;;;;;;;;10596072;28;20019;-81
2021/12/23 17:08:31;;;;;;;12.43;8.57;;;;;;;;;;10596466;28;20054;-82
2021/12/23 17:13:32;;;;;;;;;;;;;;;;;;10595622;28;20081;-80
2021/12/23 17:18:35;;;;;;;9.73;7.22;;;;;;;;;;10591985;28;20029;-79
2021/12/23 17:23:37;;;;;;;14.95;9.02;;;;;;;;;;10585647;28;20478;-81
2021/12/23 17:28:38;;;;;;;13.48;9.85;;;;;;;;;;10580157;28;20035;-81
2021/12/23 17:33:39;;;;;;;14.40;11.48;;;;;;;;;;10597405;28;20031;-80
2021/12/23 17:38:46;;;;;;;20.45;14.07;;;;;;;;;;10580440;28;20137;-80
2021/12/23 17:43:47;;;;;;;16.45;11.77;;;;;;;;;;10579487;28;20031;-81
2021/12/23 17:48:48;;;;;;;14.70;10.57;;;;;;;;;;10597072;28;20082;-81
2021/12/23 17:53:51;;;;;;;;;;;;;;;;;;10580353;28;20031;-81
2021/12/23 17:58:52;;;;;;;24.20;17.58;;;;;;;;;;10599371;28;20362;-82
2021/12/23 18:03:53;;;;;;;22.88;16.85;;;;;;;;;;10594093;28;20091;-82
2021/12/23 18:08:54;;;;;;;15.43;10.57;;;;;;;;;;10604241;27;20023;-81
2021/12/23 18:13:55;;;;;;;19.38;14.63;;;;;;;;;;10590488;28;20485;-81
2021/12/23 18:18:56;;;;;;;17.67;12.98;;;;;;;;;;10597795;28;20031;-81
2021/12/23 18:23:57;;;;;;;16.77;11.77;;;;;;;;;;10608222;28;20045;-81
2021/12/23 18:29:00;;;;;;;21.55;15.93;;;;;;;;;;10594026;28;20032;-82
2021/12/23 18:34:01;;;;;;;21.27;13.45;;;;;;;;;;10587848;28;20031;-82
2021/12/23 18:39:10;;;;;;;19.23;13.60;;;;;;;;;;10592293;28;20064;-82
2021/12/23 18:44:11;;;;;;;21.40;15.68;;;;;;;;;;10593343;28;20019;-81
2021/12/23 18:49:12;;;;;;;16.50;12.55;;;;;;;;;;10590236;28;20047;-80
2021/12/23 18:54:13;;;;;;;22.58;16.20;;;;;;;;;;10591752;28;20039;-81
2021/12/23 18:59:14;;;;;;;;;;;;;;;;;;10578938;28;20034;-80
2021/12/23 19:09:38;;;;;;;25.60;18.38;;;;;;;;;;10614741;27;20037;-80
2021/12/23 19:14:39;;;;;;;23.05;15.25;;;;;;;;;;10630959;27;20035;-81
2021/12/23 19:19:40;;;;;;;17.88;13.52;;;;;;;;;;10608087;28;20409;-81
2021/12/23 19:24:42;;;;;;;16.30;12.90;;;;;;;;;;10579138;28;20036;-82
2021/12/23 19:30:06;;;;;;;15.57;12.93;;;;;;;;;;10574432;28;20085;-81
2021/12/23 19:35:12;;;;;;;13.25;10.55;;;;;;;;;;10598967;28;20057;-82
2021/12/23 19:40:14;;;;;;;16.73;12.52;;;;;;;;;;10581771;28;20030;-81
2021/12/23 19:45:18;;;;;;;17.35;13.63;;;;;;;;;;10578778;28;20440;-83
2021/12/23 19:50:19;;;;;;;18.77;14.73;;;;;;;;;;10594177;28;20386;-82
2021/12/23 19:55:20;;;;;;;15.85;12.52;;;;;;;;;;10579769;28;20138;-81
2021/12/23 20:00:27;;;;;;;;;;;;;;;;;;10600825;28;20034;-81
2021/12/23 20:05:28;;;;;;;16.90;13.68;;;;;;;;;;10586106;28;19904;-81
2021/12/23 20:10:32;;;;;;;11.90;9.25;;;;;;;;;;10579671;28;20095;-81
2021/12/23 20:15:34;;;;;;;16.42;12.48;;;;;;;;;;10572382;28;20036;-82
2021/12/23 20:20:36;;;;;;;18.10;12.45;;;;;;;;;;10575961;28;20031;-81
2021/12/23 20:25:39;;;;;;;13.57;10.52;;;;;;;;;;10603674;28;20055;-82
2021/12/23 20:30:45;;;;;;;12.35;9.82;;;;;;;;;;10581965;28;20061;-80
2021/12/23 20:35:49;;;;;;;13.85;11.05;;;;;;;;;;10599555;28;20028;-81
2021/12/23 20:40:51;;;;;;;24.75;18.70;;;;;;;;;;10601668;28;20092;-80
2021/12/23 20:45:54;;;;;;;10.43;8.05;;;;;;;;;;10610476;28;20028;-80
2021/12/23 20:51:00;;;;;;;15.07;11.02;;;;;;;;;;10609602;28;20050;-79
2021/12/23 20:56:02;;;;;;;12.93;10.02;;;;;;;;;;10587968;28;20020;-80
2021/12/23 21:01:06;;;;;;;11.90;9.88;;;;;;;;;;10587516;28;20031;-79
2021/12/23 21:06:09;;;;;;;14.77;11.38;;;;;;;;;;10606191;28;20390;-80
2021/12/23 21:11:12;;;;;;;14.38;11.98;;;;;;;;;;10580347;28;20038;-80
